Bettles Field, AK (99726)

1:27 AM AKDT on April 30, 2017 (GMT -0800)
Bettles | | Change Station

Elev 643 ft 66.92 °N, 151.53 °W | Updated 34 minutes ago

Clear
Clear
28 °F
Feels Like 24 °F
N
4
Wind Variable Wind from North

Today
High -- | Low -- °F
--% Chance of Precip.
Yesterday
High -- | Low -- °F
Precip. -- in
Pressure 29.92 in
Visibility 10.0 miles
Clouds Few 9000 ft
Windchill 24 °F
Dew Point 21 °F
Humidity 75%
Rainfall 0.00 in
Snow Depth Not available.
5:16 AM 10:52 PM
Waxing Crescent, 21% visible
METAR PABT 300853Z 01003KT 10SM FEW090 M02/M06 A2988 RMK AO2 SLP130 T10221061 400891061 58001 $
Pressure 29.92 in
Visibility 10.0 miles
Clouds Few 9000 ft
Windchill 24 °F
Dew Point 21 °F
Humidity 75%
Rainfall 0.00 in
Snow Depth Not available.
5:16 AM 10:52 PM
Waxing Crescent, 21% visible
METAR PABT 300853Z 01003KT 10SM FEW090 M02/M06 A2988 RMK AO2 SLP130 T10221061 400891061 58001 $

Get Severe Weather Alerts

Thanks for signing up!

Be on the lookout for a verification email in your inbox.

You'll start receiving the daily forecast at 8 AM.

×

10-Day Weather Forecast

Almanac

Astronomy

Apr. 30, 2017 Rise Set
Actual Time
Civil Twilight
Nautical Twilight
Astronomical Twilight
Moon
Length of Visible Light
Length of Day
Tomorrow will be .
, % of the Moon is Illuminated

Today's Extremes

State Highs State Lows

Community

WunderPhotos

WunderBlog® & News

Nearby

Air Quality

  Air Quality AQ Index Pollutant
Not available.

Snow Depth

Station Depth Elevation

Earthquake Activity

City Distance Mag. Time & Date
Minimum magnitude displayed is 2.5.

Coastal Water Temperatures

Place Temperature

Stations

Nearby Weather Stations

Station Location Temp. Windchill Dew Point Humidity Wind Precip. Elev Updated Type
                   

Watches & Warnings

There are currently no watches in effect.